createdAt,value
2017-08-13T00:00:20.962Z,96.69
2017-08-13T00:02:48.587Z,96.67
2017-08-13T00:05:16.160Z,96.72
2017-08-13T00:07:43.797Z,96.77
2017-08-13T00:10:11.394Z,96.74
2017-08-13T00:12:39.028Z,96.72
2017-08-13T00:15:06.658Z,96.67
2017-08-13T00:17:34.277Z,96.63
2017-08-13T00:20:01.895Z,96.65
2017-08-13T00:22:29.546Z,96.59
2017-08-13T00:24:57.139Z,96.61
2017-08-13T00:27:24.741Z,96.51
2017-08-13T00:29:52.446Z,96.44
2017-08-13T00:32:20.042Z,96.27
2017-08-13T00:34:47.693Z,96.25
2017-08-13T00:37:15.293Z,96.22
2017-08-13T00:39:42.963Z,96.18
2017-08-13T00:42:10.557Z,96.12
2017-08-13T00:44:38.170Z,96.02
2017-08-13T00:47:05.762Z,95.97
2017-08-13T00:49:33.402Z,95.94
2017-08-13T00:52:01.002Z,95.92
2017-08-13T00:54:28.629Z,95.92
2017-08-13T00:56:56.214Z,95.88
2017-08-13T00:59:23.843Z,95.96
2017-08-13T01:01:51.417Z,96.17
2017-08-13T01:04:19.026Z,96.19
2017-08-13T01:06:46.660Z,95.96
2017-08-13T01:09:14.256Z,95.68
2017-08-13T01:11:41.911Z,95.67
2017-08-13T01:14:09.505Z,95.67
2017-08-13T01:16:37.119Z,95.65
2017-08-13T01:19:04.715Z,95.74
2017-08-13T01:21:32.338Z,95.77
2017-08-13T01:23:59.940Z,95.75
2017-08-13T01:26:27.558Z,95.75
2017-08-13T01:28:55.218Z,95.72
2017-08-13T01:31:22.859Z,95.66
2017-08-13T01:33:50.463Z,95.59
2017-08-13T01:36:18.064Z,95.60
2017-08-13T01:38:45.694Z,95.53
2017-08-13T01:41:13.298Z,95.44
2017-08-13T01:43:40.924Z,95.44
2017-08-13T01:46:08.514Z,95.39
2017-08-13T01:48:36.127Z,94.76
2017-08-13T01:51:03.718Z,94.49
2017-08-13T01:53:31.346Z,94.40
2017-08-13T01:55:58.934Z,93.60
2017-08-13T01:58:26.562Z,93.31
2017-08-13T02:00:54.243Z,93.20
2017-08-13T02:03:21.866Z,93.17
2017-08-13T02:05:49.491Z,92.97
2017-08-13T02:08:17.135Z,93.29
2017-08-13T02:10:44.726Z,93.70
2017-08-13T02:13:12.350Z,93.96
2017-08-13T02:15:39.983Z,93.89
2017-08-13T02:18:07.619Z,94.02
2017-08-13T02:20:35.239Z,93.97
2017-08-13T02:23:02.838Z,94.20
2017-08-13T02:25:30.695Z,94.44
2017-08-13T02:27:58.283Z,94.80
2017-08-13T02:30:25.898Z,95.27
2017-08-13T02:32:53.490Z,95.61
2017-08-13T02:35:21.138Z,95.84
2017-08-13T02:37:48.776Z,96.27
2017-08-13T02:40:16.394Z,96.62
2017-08-13T02:42:43.989Z,97.08
2017-08-13T02:45:11.611Z,97.45
2017-08-13T02:47:39.209Z,97.67
2017-08-13T02:50:06.850Z,97.77
2017-08-13T02:52:34.454Z,97.87
2017-08-13T02:55:02.163Z,97.88
2017-08-13T02:57:29.765Z,97.91
2017-08-13T02:59:57.450Z,97.79
2017-08-13T03:02:25.050Z,97.76
2017-08-13T03:04:52.736Z,97.68
2017-08-13T03:07:20.353Z,97.63
2017-08-13T03:09:47.988Z,97.42
2017-08-13T03:12:15.629Z,97.38
2017-08-13T03:14:43.255Z,97.40
2017-08-13T03:17:10.903Z,97.46
2017-08-13T03:19:38.507Z,97.54
2017-08-13T03:22:06.187Z,97.55
2017-08-13T03:24:33.770Z,97.58
2017-08-13T03:27:01.404Z,97.57
2017-08-13T03:29:29.022Z,97.54
2017-08-13T03:31:56.643Z,97.67
2017-08-13T03:34:24.254Z,97.76
2017-08-13T03:36:51.871Z,97.93
2017-08-13T03:39:19.502Z,98.22
2017-08-13T03:41:47.110Z,98.42
2017-08-13T03:44:14.776Z,98.50
2017-08-13T03:46:42.428Z,98.50
2017-08-13T03:49:10.034Z,98.49
2017-08-13T03:51:37.638Z,98.54
2017-08-13T03:54:05.267Z,98.57
2017-08-13T03:56:32.867Z,98.57
2017-08-13T03:59:00.503Z,98.48
2017-08-13T04:01:28.125Z,98.18
2017-08-13T04:03:55.764Z,98.07
2017-08-13T04:06:23.346Z,97.87
2017-08-13T04:08:50.983Z,97.93
2017-08-13T04:11:18.580Z,98.14
2017-08-13T04:13:46.219Z,98.18
2017-08-13T04:16:13.812Z,98.30
2017-08-13T04:18:41.432Z,98.30
2017-08-13T04:21:09.030Z,98.16
2017-08-13T04:23:36.666Z,98.03
2017-08-13T04:26:04.290Z,97.94
2017-08-13T04:28:32.018Z,97.96
2017-08-13T04:30:59.630Z,98.01
2017-08-13T04:33:27.276Z,98.07
2017-08-13T04:35:54.873Z,97.98
2017-08-13T04:38:22.509Z,97.89
2017-08-13T04:40:50.104Z,97.91
2017-08-13T04:43:17.697Z,97.90
2017-08-13T04:45:45.378Z,97.90
2017-08-13T04:48:12.977Z,97.92
2017-08-13T04:50:40.626Z,97.94
2017-08-13T04:53:08.229Z,98.00
2017-08-13T04:55:35.889Z,98.06
2017-08-13T04:58:03.490Z,98.03
2017-08-13T05:00:31.230Z,98.04
2017-08-13T05:02:58.857Z,97.89
2017-08-13T05:05:26.545Z,97.52
2017-08-13T05:07:54.438Z,97.37
2017-08-13T05:10:22.071Z,97.19
2017-08-13T05:12:49.686Z,97.18
2017-08-13T05:15:17.555Z,97.05
2017-08-13T05:17:45.150Z,97.03
2017-08-13T05:20:12.802Z,97.04
2017-08-13T05:22:40.473Z,97.20
2017-08-13T05:25:08.083Z,97.22
2017-08-13T05:27:35.714Z,97.19
2017-08-13T05:30:03.514Z,97.13
2017-08-13T05:32:31.143Z,97.22
2017-08-13T05:34:58.747Z,97.16
2017-08-13T05:37:26.384Z,97.00
2017-08-13T05:39:53.982Z,97.02
2017-08-13T05:42:21.622Z,96.79
2017-08-13T05:44:49.225Z,96.88
2017-08-13T05:47:16.854Z,96.84
2017-08-13T05:49:44.451Z,96.70
2017-08-13T05:52:12.066Z,96.55
2017-08-13T05:54:39.798Z,96.33
2017-08-13T05:57:07.425Z,96.16
2017-08-13T05:59:35.055Z,96.04
2017-08-13T06:02:02.651Z,96.32
2017-08-13T06:04:30.271Z,96.14
2017-08-13T06:06:57.898Z,95.93
2017-08-13T06:09:25.539Z,95.90
2017-08-13T06:11:53.173Z,95.90
2017-08-13T06:14:20.906Z,95.67
2017-08-13T06:16:48.546Z,95.33
2017-08-13T06:19:16.162Z,95.38
2017-08-13T06:21:43.784Z,95.39
2017-08-13T06:24:11.425Z,95.27
2017-08-13T06:26:39.026Z,95.34
2017-08-13T06:29:06.671Z,95.37
2017-08-13T06:31:34.274Z,95.56
2017-08-13T06:34:01.904Z,95.12
2017-08-13T06:36:29.511Z,94.40
2017-08-13T06:38:57.142Z,94.31
2017-08-13T06:41:24.747Z,94.35
2017-08-13T06:43:52.386Z,94.02
2017-08-13T06:46:20.005Z,93.60
2017-08-13T06:48:47.647Z,93.41
2017-08-13T06:51:15.254Z,93.26
2017-08-13T06:53:42.889Z,92.85
2017-08-13T06:56:10.563Z,92.46
2017-08-13T06:58:38.192Z,92.82
2017-08-13T07:01:05.802Z,91.35
2017-08-13T07:03:33.436Z,91.53
2017-08-13T07:06:01.035Z,91.49
2017-08-13T07:08:28.676Z,91.06
2017-08-13T07:10:56.286Z,90.93
2017-08-13T07:13:23.914Z,90.25
2017-08-13T07:15:51.520Z,90.31
2017-08-13T07:18:19.169Z,90.04
2017-08-13T07:20:46.767Z,89.64
2017-08-13T07:23:14.393Z,89.68
2017-08-13T07:25:41.998Z,89.44
2017-08-13T07:28:09.628Z,89.16
2017-08-13T07:30:37.218Z,89.18
2017-08-13T07:33:04.867Z,89.59
2017-08-13T07:35:32.467Z,89.56
2017-08-13T07:38:00.090Z,89.43
2017-08-13T07:40:27.699Z,88.94
2017-08-13T07:42:55.358Z,89.03
2017-08-13T07:45:22.958Z,88.25
2017-08-13T07:47:50.574Z,87.68
2017-08-13T07:50:18.219Z,87.08
2017-08-13T07:52:45.827Z,85.90
2017-08-13T07:55:13.463Z,86.89
2017-08-13T07:57:41.071Z,85.94
2017-08-13T08:00:08.701Z,86.56
2017-08-13T08:02:36.307Z,86.41
2017-08-13T08:05:03.955Z,85.62
2017-08-13T08:07:31.565Z,84.57
2017-08-13T08:09:59.207Z,84.40
2017-08-13T08:12:26.856Z,83.71
2017-08-13T08:14:54.485Z,83.00
2017-08-13T08:17:22.087Z,83.14
2017-08-13T08:19:49.745Z,82.82
2017-08-13T08:22:17.367Z,82.09
2017-08-13T08:24:44.963Z,80.64
2017-08-13T08:27:12.610Z,80.51
2017-08-13T08:29:40.226Z,80.79
2017-08-13T08:32:07.846Z,80.97
2017-08-13T08:34:35.448Z,81.35
2017-08-13T08:37:03.110Z,81.00
2017-08-13T08:39:30.707Z,80.91
2017-08-13T08:41:58.350Z,80.90
2017-08-13T08:44:25.963Z,80.43
2017-08-13T08:46:53.597Z,79.22
2017-08-13T08:49:21.207Z,79.34
2017-08-13T08:51:48.847Z,78.49
2017-08-13T08:54:16.449Z,78.74
2017-08-13T08:56:44.230Z,77.15
2017-08-13T08:59:11.826Z,77.35
2017-08-13T09:01:39.449Z,76.31
2017-08-13T09:04:07.042Z,75.90
2017-08-13T09:06:34.670Z,76.26
2017-08-13T09:09:02.267Z,75.50
2017-08-13T09:11:29.870Z,76.70
2017-08-13T09:13:57.506Z,74.88
2017-08-13T09:16:25.153Z,74.95
2017-08-13T09:18:52.755Z,74.50
2017-08-13T09:21:20.356Z,72.57
2017-08-13T09:23:48.102Z,72.67
2017-08-13T09:26:15.703Z,72.46
2017-08-13T09:28:43.358Z,71.95
2017-08-13T09:31:10.971Z,72.30
2017-08-13T09:33:38.640Z,72.76
2017-08-13T09:36:06.250Z,72.73
2017-08-13T09:38:33.895Z,72.53
2017-08-13T09:41:01.507Z,72.60
2017-08-13T09:43:29.171Z,71.18
2017-08-13T09:45:56.783Z,70.97
2017-08-13T09:48:24.420Z,70.37
2017-08-13T09:50:52.033Z,69.39
2017-08-13T09:53:19.675Z,69.64
2017-08-13T09:55:47.290Z,69.81
2017-08-13T09:58:14.927Z,69.78
2017-08-13T10:00:42.517Z,69.63
2017-08-13T10:03:10.144Z,69.57
2017-08-13T10:05:37.755Z,69.18
2017-08-13T10:08:05.395Z,70.28
2017-08-13T10:10:32.998Z,70.14
2017-08-13T10:13:00.618Z,70.78
2017-08-13T10:15:28.234Z,70.46
2017-08-13T10:17:55.882Z,70.17
2017-08-13T10:20:23.518Z,70.60
2017-08-13T10:22:51.116Z,70.54
2017-08-13T10:25:18.754Z,70.74
2017-08-13T10:27:46.350Z,71.36
2017-08-13T10:30:13.998Z,70.64
2017-08-13T10:32:41.611Z,68.86
2017-08-13T10:35:09.250Z,68.86
2017-08-13T10:37:36.867Z,67.61
2017-08-13T10:40:04.478Z,66.30
2017-08-13T10:42:32.083Z,64.04
2017-08-13T10:44:59.774Z,63.01
2017-08-13T10:47:27.378Z,63.81
2017-08-13T10:49:54.990Z,62.85
2017-08-13T10:52:22.690Z,62.76
2017-08-13T10:54:50.278Z,62.29
2017-08-13T10:57:17.918Z,62.31
2017-08-13T10:59:45.538Z,62.35
2017-08-13T11:02:13.166Z,61.90
2017-08-13T11:04:40.771Z,62.58
2017-08-13T11:07:08.474Z,63.61
2017-08-13T11:09:36.087Z,61.66
2017-08-13T11:12:03.718Z,61.60
2017-08-13T11:14:31.329Z,61.25
2017-08-13T11:16:58.956Z,58.66
2017-08-13T11:19:26.566Z,59.18
2017-08-13T11:21:54.204Z,59.38
2017-08-13T11:24:21.836Z,58.82
2017-08-13T11:26:49.459Z,59.36
2017-08-13T11:29:17.069Z,60.97
2017-08-13T11:31:44.691Z,59.53
2017-08-13T11:34:12.342Z,57.24
2017-08-13T11:36:40.011Z,57.01
2017-08-13T11:39:07.621Z,57.05
2017-08-13T11:41:35.243Z,56.11
2017-08-13T11:44:02.855Z,57.26
2017-08-13T11:46:30.491Z,56.66
2017-08-13T11:48:58.113Z,57.42
2017-08-13T11:51:25.751Z,56.34
2017-08-13T11:53:53.342Z,57.22
2017-08-13T11:56:20.969Z,55.95
2017-08-13T11:58:48.571Z,53.40
2017-08-13T12:01:16.150Z,51.23
2017-08-13T12:03:43.778Z,49.68
2017-08-13T12:06:11.375Z,49.33
2017-08-13T12:08:39.008Z,48.06
2017-08-13T12:11:06.598Z,47.62
2017-08-13T12:13:34.241Z,48.16
2017-08-13T12:16:01.830Z,49.19
2017-08-13T12:18:29.462Z,46.78
2017-08-13T12:20:57.050Z,46.75
2017-08-13T12:23:24.696Z,46.22
2017-08-13T12:25:52.275Z,46.05
2017-08-13T12:28:19.899Z,46.24
2017-08-13T12:30:47.502Z,47.65
2017-08-13T12:33:15.146Z,47.62
2017-08-13T12:35:42.749Z,45.46
2017-08-13T12:38:10.373Z,46.56
2017-08-13T12:40:37.972Z,46.85
2017-08-13T12:43:05.571Z,46.25
2017-08-13T12:45:33.194Z,44.53
2017-08-13T12:48:00.821Z,44.90
2017-08-13T12:50:28.454Z,45.33
2017-08-13T12:52:56.071Z,43.58
2017-08-13T12:55:23.691Z,44.64
2017-08-13T12:57:51.290Z,43.90
2017-08-13T13:00:18.918Z,44.00
2017-08-13T13:02:46.514Z,40.85
2017-08-13T13:05:14.142Z,42.40
2017-08-13T13:07:41.756Z,40.82
2017-08-13T13:10:11.059Z,42.03
2017-08-13T13:12:38.662Z,41.41
2017-08-13T13:15:06.316Z,39.41
2017-08-13T13:17:33.898Z,40.42
2017-08-13T13:20:01.610Z,40.30
2017-08-13T13:22:29.207Z,42.26
2017-08-13T13:24:56.858Z,42.48
2017-08-13T13:27:24.447Z,43.94
2017-08-13T13:29:52.070Z,45.59
2017-08-13T13:32:19.672Z,45.44
2017-08-13T13:34:47.318Z,43.02
2017-08-13T13:37:14.914Z,41.41
2017-08-13T13:39:42.556Z,40.52
2017-08-13T13:42:10.169Z,40.31
2017-08-13T13:44:37.775Z,39.94
2017-08-13T13:47:05.390Z,39.18
2017-08-13T13:49:32.986Z,41.50
2017-08-13T13:52:00.615Z,41.29
2017-08-13T13:54:28.203Z,41.83
2017-08-13T13:56:55.858Z,43.61
2017-08-13T13:59:23.468Z,45.42
2017-08-13T14:01:51.112Z,46.38
2017-08-13T14:04:18.710Z,47.42
2017-08-13T14:06:46.324Z,47.27
2017-08-13T14:09:13.924Z,46.08
2017-08-13T14:11:41.554Z,44.83
2017-08-13T14:14:09.150Z,45.46
2017-08-13T14:16:36.779Z,45.62
2017-08-13T14:19:04.374Z,47.05
2017-08-13T14:21:32.013Z,45.08
2017-08-13T14:23:59.623Z,44.76
2017-08-13T14:26:27.275Z,46.18
2017-08-13T14:28:54.915Z,46.97
2017-08-13T14:31:22.552Z,46.12
2017-08-13T14:33:50.151Z,46.70
2017-08-13T14:36:17.772Z,47.25
2017-08-13T14:38:45.390Z,47.38
2017-08-13T14:41:12.997Z,46.08
2017-08-13T14:43:40.622Z,46.46
2017-08-13T14:46:08.231Z,47.31
2017-08-13T14:48:35.862Z,45.31
2017-08-13T14:51:03.458Z,44.64
2017-08-13T14:53:31.086Z,45.73
2017-08-13T14:55:58.682Z,46.17
2017-08-13T14:58:26.323Z,46.49
2017-08-13T15:00:53.942Z,46.26
2017-08-13T15:03:21.563Z,44.53
2017-08-13T15:05:49.170Z,42.67
2017-08-13T15:08:16.818Z,42.14
2017-08-13T15:10:44.427Z,41.14
2017-08-13T15:13:12.034Z,42.63
2017-08-13T15:15:39.683Z,44.42
2017-08-13T15:18:07.327Z,45.96
2017-08-13T15:20:34.931Z,46.67
2017-08-13T15:23:02.526Z,47.17
2017-08-13T15:25:30.157Z,48.78
2017-08-13T15:27:57.805Z,49.27
2017-08-13T15:30:25.441Z,49.98
2017-08-13T15:32:53.030Z,51.12
2017-08-13T15:35:20.658Z,51.97
2017-08-13T15:37:48.280Z,51.83
2017-08-13T15:40:15.891Z,51.83
2017-08-13T15:42:43.510Z,51.88
2017-08-13T15:45:11.117Z,51.11
2017-08-13T15:47:38.727Z,52.11
2017-08-13T15:50:06.483Z,52.47
2017-08-13T15:52:34.099Z,53.48
2017-08-13T15:55:01.722Z,52.10
2017-08-13T15:57:29.342Z,51.85
2017-08-13T15:59:56.948Z,52.13
2017-08-13T16:02:24.556Z,53.15
2017-08-13T16:04:52.184Z,53.29
2017-08-13T16:07:19.807Z,54.99
2017-08-13T16:09:47.438Z,55.80
2017-08-13T16:12:15.067Z,54.59
2017-08-13T16:14:42.670Z,55.54
2017-08-13T16:17:10.294Z,55.46
2017-08-13T16:19:37.883Z,56.61
2017-08-13T16:22:05.510Z,56.55
2017-08-13T16:24:33.154Z,55.70
2017-08-13T16:27:00.778Z,55.39
2017-08-13T16:29:28.371Z,56.13
2017-08-13T16:31:56.002Z,54.66
2017-08-13T16:34:23.626Z,55.40
2017-08-13T16:36:51.254Z,55.17
2017-08-13T16:39:18.854Z,55.89
2017-08-13T16:41:46.549Z,55.71
2017-08-13T16:44:14.130Z,55.15
2017-08-13T16:46:41.763Z,55.43
2017-08-13T16:49:09.378Z,54.70
2017-08-13T16:51:37.018Z,54.96
2017-08-13T16:54:04.637Z,53.93
2017-08-13T16:56:32.226Z,54.68
2017-08-13T16:58:59.881Z,54.19
2017-08-13T17:01:27.509Z,53.69
2017-08-13T17:03:55.091Z,54.37
2017-08-13T17:06:22.736Z,53.10
2017-08-13T17:08:50.359Z,53.53
2017-08-13T17:11:17.992Z,53.14
2017-08-13T17:13:45.590Z,53.92
2017-08-13T17:16:13.234Z,53.82
2017-08-13T17:18:40.858Z,53.62
2017-08-13T17:21:08.495Z,53.27
2017-08-13T17:23:36.124Z,53.77
2017-08-13T17:26:03.778Z,53.47
2017-08-13T17:28:31.417Z,52.20
2017-08-13T17:30:59.009Z,53.75
2017-08-13T17:33:26.634Z,52.82
2017-08-13T17:35:54.237Z,53.30
2017-08-13T17:38:21.872Z,54.24
2017-08-13T17:40:49.470Z,54.07
2017-08-13T17:43:17.107Z,55.18
2017-08-13T17:45:44.706Z,55.50
2017-08-13T17:48:12.369Z,56.16
2017-08-13T17:50:39.961Z,56.04
2017-08-13T17:53:07.583Z,56.33
2017-08-13T17:55:35.167Z,56.59
2017-08-13T17:58:02.831Z,57.03
2017-08-13T18:00:30.430Z,56.81
2017-08-13T18:02:58.025Z,57.22
2017-08-13T18:05:25.715Z,57.26
2017-08-13T18:07:53.319Z,56.93
2017-08-13T18:10:20.963Z,58.17
2017-08-13T18:12:48.562Z,58.41
2017-08-13T18:15:16.201Z,58.35
2017-08-13T18:17:43.803Z,58.82
2017-08-13T18:20:11.436Z,59.14
2017-08-13T18:22:39.026Z,58.41
2017-08-13T18:25:06.656Z,58.41
2017-08-13T18:27:34.254Z,58.02
2017-08-13T18:30:01.898Z,58.59
2017-08-13T18:32:29.526Z,59.00
2017-08-13T18:34:57.185Z,57.32
2017-08-13T18:37:24.950Z,57.22
2017-08-13T18:39:52.592Z,56.23
2017-08-13T18:42:20.192Z,55.78
2017-08-13T18:44:47.837Z,56.85
2017-08-13T18:47:15.438Z,56.68
2017-08-13T18:49:43.102Z,57.23
2017-08-13T18:52:10.946Z,59.20
2017-08-13T18:54:38.558Z,59.91
2017-08-13T18:57:06.165Z,60.11
2017-08-13T18:59:33.799Z,59.78
2017-08-13T19:02:01.407Z,60.22
2017-08-13T19:04:29.048Z,60.61
2017-08-13T19:06:56.662Z,61.24
2017-08-13T19:09:24.305Z,61.37
2017-08-13T19:11:52.011Z,61.78
2017-08-13T19:14:19.653Z,61.63
2017-08-13T19:16:47.277Z,61.90
2017-08-13T19:19:14.899Z,61.85
2017-08-13T19:21:42.517Z,62.20
2017-08-13T19:24:10.142Z,62.09
2017-08-13T19:26:37.755Z,62.36
2017-08-13T19:29:05.372Z,62.61
2017-08-13T19:31:33.001Z,62.94
2017-08-13T19:34:00.612Z,62.58
2017-08-13T19:36:28.303Z,63.05
2017-08-13T19:38:55.942Z,63.46
2017-08-13T19:41:23.550Z,64.03
2017-08-13T19:43:51.126Z,64.10
2017-08-13T19:46:18.771Z,64.43
2017-08-13T19:48:46.360Z,64.53
2017-08-13T19:51:14.010Z,64.69
2017-08-13T19:53:41.609Z,64.84
2017-08-13T19:56:09.399Z,64.83
2017-08-13T19:58:36.994Z,64.89
2017-08-13T20:01:04.618Z,65.04
2017-08-13T20:03:32.207Z,65.39
2017-08-13T20:05:59.860Z,65.15
2017-08-13T20:08:27.472Z,65.14
2017-08-13T20:10:55.112Z,65.29
2017-08-13T20:13:22.792Z,65.28
2017-08-13T20:15:50.418Z,65.50
2017-08-13T20:18:18.024Z,65.54
2017-08-13T20:20:45.675Z,65.73
2017-08-13T20:23:13.262Z,66.03
2017-08-13T20:25:40.890Z,66.34
2017-08-13T20:28:08.491Z,66.73
2017-08-13T20:30:36.119Z,66.75
2017-08-13T20:33:03.723Z,67.20
2017-08-13T20:35:31.358Z,67.29
2017-08-13T20:37:58.979Z,67.34
2017-08-13T20:40:26.600Z,67.69
2017-08-13T20:42:54.191Z,67.67
2017-08-13T20:45:21.826Z,67.56
2017-08-13T20:47:49.429Z,67.58
2017-08-13T20:50:17.058Z,68.09
2017-08-13T20:52:44.690Z,67.83
2017-08-13T20:55:12.318Z,68.34
2017-08-13T20:57:39.916Z,68.72
2017-08-13T21:00:07.576Z,68.29
2017-08-13T21:02:35.180Z,68.41
2017-08-13T21:05:02.811Z,68.15
2017-08-13T21:07:30.424Z,68.33
2017-08-13T21:09:58.015Z,68.54
2017-08-13T21:12:25.639Z,69.14
2017-08-13T21:14:53.233Z,69.05
2017-08-13T21:17:20.857Z,69.22
2017-08-13T21:19:48.462Z,69.21
2017-08-13T21:22:16.087Z,69.98
2017-08-13T21:24:43.780Z,69.83
2017-08-13T21:27:11.390Z,70.12
2017-08-13T21:29:39.006Z,69.88
2017-08-13T21:32:06.632Z,70.11
2017-08-13T21:34:34.238Z,70.34
2017-08-13T21:37:01.855Z,70.69
2017-08-13T21:39:29.471Z,70.63
2017-08-13T21:41:57.083Z,70.80
2017-08-13T21:44:24.695Z,70.52
2017-08-13T21:46:52.324Z,70.80
2017-08-13T21:49:19.927Z,70.96
2017-08-13T21:51:47.554Z,70.93
2017-08-13T21:54:15.175Z,71.30
2017-08-13T21:56:42.803Z,71.17
2017-08-13T21:59:10.419Z,71.55
2017-08-13T22:01:38.065Z,71.68
2017-08-13T22:04:05.686Z,71.61
2017-08-13T22:06:33.363Z,71.90
2017-08-13T22:09:00.961Z,72.04
2017-08-13T22:11:28.683Z,72.68
2017-08-13T22:13:56.322Z,72.98
2017-08-13T22:16:23.961Z,73.20
2017-08-13T22:18:51.612Z,73.31
2017-08-13T22:21:19.244Z,73.11
2017-08-13T22:23:46.842Z,73.03
2017-08-13T22:26:14.499Z,73.18
2017-08-13T22:28:42.195Z,73.67
2017-08-13T22:31:09.858Z,74.34
2017-08-13T22:33:37.470Z,74.30
2017-08-13T22:36:05.129Z,74.86
2017-08-13T22:38:32.742Z,75.11
2017-08-13T22:41:00.373Z,75.20
2017-08-13T22:43:27.992Z,75.34
2017-08-13T22:45:55.619Z,75.39
2017-08-13T22:48:23.213Z,75.16
2017-08-13T22:50:50.963Z,75.11
2017-08-13T22:53:18.570Z,74.97
2017-08-13T22:55:46.213Z,74.95
2017-08-13T22:58:13.850Z,75.27
2017-08-13T23:00:41.461Z,75.47
2017-08-13T23:03:09.135Z,75.54
2017-08-13T23:05:36.750Z,75.33
2017-08-13T23:08:04.386Z,75.13
2017-08-13T23:10:32.010Z,75.37
2017-08-13T23:12:59.666Z,75.61
2017-08-13T23:15:27.279Z,75.90
2017-08-13T23:17:54.914Z,75.25
2017-08-13T23:20:22.518Z,74.90
2017-08-13T23:22:50.294Z,74.55
2017-08-13T23:25:17.915Z,74.85
2017-08-13T23:27:45.566Z,75.16
2017-08-13T23:30:13.227Z,75.13
2017-08-13T23:32:40.890Z,75.67
2017-08-13T23:35:08.486Z,75.78
2017-08-13T23:37:36.181Z,75.79
2017-08-13T23:40:03.770Z,75.33
2017-08-13T23:42:31.376Z,75.74
2017-08-13T23:44:59.040Z,75.39
2017-08-13T23:47:26.646Z,75.74
2017-08-13T23:49:54.286Z,76.03
2017-08-13T23:52:21.910Z,76.38
2017-08-13T23:54:49.578Z,76.68
2017-08-13T23:57:17.207Z,76.75
2017-08-13T23:59:44.841Z,76.73
